sensor_id;sensor_type;location;lat;lon;timestamp;P1;durP1;ratioP1;P2;durP2;ratioP2
7177;SDS011;3630;42.146;24.756;2023-02-15T00:00:19;18.30;;;14.37;;
7177;SDS011;3630;42.146;24.756;2023-02-15T00:02:46;19.73;;;15.17;;
7177;SDS011;3630;42.146;24.756;2023-02-15T00:05:14;19.97;;;13.67;;
7177;SDS011;3630;42.146;24.756;2023-02-15T00:07:41;21.17;;;15.07;;
7177;SDS011;3630;42.146;24.756;2023-02-15T00:10:08;22.95;;;16.45;;
7177;SDS011;3630;42.146;24.756;2023-02-15T00:12:37;20.27;;;16.00;;
7177;SDS011;3630;42.146;24.756;2023-02-15T00:15:04;19.73;;;15.03;;
7177;SDS011;3630;42.146;24.756;2023-02-15T00:17:30;20.27;;;15.77;;
7177;SDS011;3630;42.146;24.756;2023-02-15T00:19:57;24.17;;;16.70;;
7177;SDS011;3630;42.146;24.756;2023-02-15T00:22:26;22.60;;;16.20;;
7177;SDS011;3630;42.146;24.756;2023-02-15T00:24:53;22.87;;;16.83;;
7177;SDS011;3630;42.146;24.756;2023-02-15T00:27:19;22.45;;;19.52;;
7177;SDS011;3630;42.146;24.756;2023-02-15T00:29:46;22.70;;;16.73;;
7177;SDS011;3630;42.146;24.756;2023-02-15T00:32:13;26.57;;;17.40;;
7177;SDS011;3630;42.146;24.756;2023-02-15T00:34:40;22.73;;;16.57;;
7177;SDS011;3630;42.146;24.756;2023-02-15T00:37:06;21.70;;;16.23;;
7177;SDS011;3630;42.146;24.756;2023-02-15T00:39:34;27.03;;;17.33;;
7177;SDS011;3630;42.146;24.756;2023-02-15T00:42:01;24.37;;;18.10;;
7177;SDS011;3630;42.146;24.756;2023-02-15T00:44:28;24.87;;;17.13;;
7177;SDS011;3630;42.146;24.756;2023-02-15T00:46:55;24.23;;;18.00;;
7177;SDS011;3630;42.146;24.756;2023-02-15T00:49:22;23.00;;;17.57;;
7177;SDS011;3630;42.146;24.756;2023-02-15T00:51:49;27.07;;;17.90;;
7177;SDS011;3630;42.146;24.756;2023-02-15T00:54:15;23.10;;;18.07;;
7177;SDS011;3630;42.146;24.756;2023-02-15T00:56:43;25.70;;;17.57;;
7177;SDS011;3630;42.146;24.756;2023-02-15T00:59:10;21.47;;;16.87;;
7177;SDS011;3630;42.146;24.756;2023-02-15T01:01:37;23.67;;;17.57;;
7177;SDS011;3630;42.146;24.756;2023-02-15T01:04:04;23.63;;;17.77;;
7177;SDS011;3630;42.146;24.756;2023-02-15T01:06:31;27.03;;;19.13;;
7177;SDS011;3630;42.146;24.756;2023-02-15T01:12:21;24.33;;;18.17;;
7177;SDS011;3630;42.146;24.756;2023-02-15T01:14:48;23.83;;;18.57;;
7177;SDS011;3630;42.146;24.756;2023-02-15T01:17:14;24.27;;;18.02;;
7177;SDS011;3630;42.146;24.756;2023-02-15T01:19:41;25.60;;;18.70;;
7177;SDS011;3630;42.146;24.756;2023-02-15T01:22:08;25.23;;;18.83;;
7177;SDS011;3630;42.146;24.756;2023-02-15T01:24:35;27.13;;;19.47;;
7177;SDS011;3630;42.146;24.756;2023-02-15T01:27:02;25.13;;;18.63;;
7177;SDS011;3630;42.146;24.756;2023-02-15T01:29:30;23.93;;;18.77;;
7177;SDS011;3630;42.146;24.756;2023-02-15T01:31:57;29.83;;;19.50;;
7177;SDS011;3630;42.146;24.756;2023-02-15T01:34:24;24.40;;;18.23;;
7177;SDS011;3630;42.146;24.756;2023-02-15T01:36:51;25.70;;;19.43;;
7177;SDS011;3630;42.146;24.756;2023-02-15T01:39:18;26.10;;;18.83;;
7177;SDS011;3630;42.146;24.756;2023-02-15T01:41:44;24.47;;;17.93;;
7177;SDS011;3630;42.146;24.756;2023-02-15T01:47:29;27.93;;;19.13;;
7177;SDS011;3630;42.146;24.756;2023-02-15T01:50:03;23.10;;;18.43;;
7177;SDS011;3630;42.146;24.756;2023-02-15T01:52:36;28.10;;;20.03;;
7177;SDS011;3630;42.146;24.756;2023-02-15T01:55:05;27.20;;;18.90;;
7177;SDS011;3630;42.146;24.756;2023-02-15T01:57:33;25.17;;;17.83;;
7177;SDS011;3630;42.146;24.756;2023-02-15T02:00:01;25.23;;;18.43;;
7177;SDS011;3630;42.146;24.756;2023-02-15T02:02:32;26.97;;;19.77;;
7177;SDS011;3630;42.146;24.756;2023-02-15T02:04:59;26.73;;;19.60;;
7177;SDS011;3630;42.146;24.756;2023-02-15T02:07:32;29.47;;;20.40;;
7177;SDS011;3630;42.146;24.756;2023-02-15T02:10:02;28.43;;;19.20;;
7177;SDS011;3630;42.146;24.756;2023-02-15T02:12:30;26.50;;;19.47;;
7177;SDS011;3630;42.146;24.756;2023-02-15T02:14:57;27.17;;;20.60;;
7177;SDS011;3630;42.146;24.756;2023-02-15T02:17:27;28.10;;;20.07;;
7177;SDS011;3630;42.146;24.756;2023-02-15T02:20:15;28.00;;;20.00;;
7177;SDS011;3630;42.146;24.756;2023-02-15T02:25:40;23.83;;;18.60;;
7177;SDS011;3630;42.146;24.756;2023-02-15T02:32:17;25.20;;;19.17;;
7177;SDS011;3630;42.146;24.756;2023-02-15T02:35:08;27.00;;;19.03;;
7177;SDS011;3630;42.146;24.756;2023-02-15T02:37:43;27.77;;;19.43;;
7177;SDS011;3630;42.146;24.756;2023-02-15T02:40:19;25.67;;;18.30;;
7177;SDS011;3630;42.146;24.756;2023-02-15T02:42:54;26.60;;;19.37;;
7177;SDS011;3630;42.146;24.756;2023-02-15T02:45:26;26.20;;;18.33;;
7177;SDS011;3630;42.146;24.756;2023-02-15T02:47:57;26.37;;;18.83;;
7177;SDS011;3630;42.146;24.756;2023-02-15T02:50:29;24.67;;;19.03;;
7177;SDS011;3630;42.146;24.756;2023-02-15T02:52:57;23.23;;;18.00;;
7177;SDS011;3630;42.146;24.756;2023-02-15T02:55:25;24.63;;;18.83;;
7177;SDS011;3630;42.146;24.756;2023-02-15T02:57:57;21.97;;;17.40;;
7177;SDS011;3630;42.146;24.756;2023-02-15T03:00:31;24.97;;;17.80;;
7177;SDS011;3630;42.146;24.756;2023-02-15T03:03:02;26.07;;;18.63;;
7177;SDS011;3630;42.146;24.756;2023-02-15T03:05:35;27.17;;;18.90;;
7177;SDS011;3630;42.146;24.756;2023-02-15T03:08:07;27.27;;;18.73;;
7177;SDS011;3630;42.146;24.756;2023-02-15T03:10:36;30.43;;;18.53;;
7177;SDS011;3630;42.146;24.756;2023-02-15T03:13:05;28.47;;;19.00;;
7177;SDS011;3630;42.146;24.756;2023-02-15T03:15:34;26.90;;;19.47;;
7177;SDS011;3630;42.146;24.756;2023-02-15T03:18:34;26.83;;;19.20;;
7177;SDS011;3630;42.146;24.756;2023-02-15T03:21:05;29.87;;;20.57;;
7177;SDS011;3630;42.146;24.756;2023-02-15T03:23:34;28.73;;;20.83;;
7177;SDS011;3630;42.146;24.756;2023-02-15T03:26:05;31.87;;;21.70;;
7177;SDS011;3630;42.146;24.756;2023-02-15T03:28:33;26.90;;;20.17;;
7177;SDS011;3630;42.146;24.756;2023-02-15T03:31:05;27.67;;;20.40;;
7177;SDS011;3630;42.146;24.756;2023-02-15T03:33:34;27.27;;;20.10;;
7177;SDS011;3630;42.146;24.756;2023-02-15T03:36:08;27.67;;;19.90;;
7177;SDS011;3630;42.146;24.756;2023-02-15T03:38:44;29.77;;;19.40;;
7177;SDS011;3630;42.146;24.756;2023-02-15T03:41:16;28.30;;;20.10;;
7177;SDS011;3630;42.146;24.756;2023-02-15T03:43:48;30.90;;;20.57;;
7177;SDS011;3630;42.146;24.756;2023-02-15T03:46:20;25.57;;;18.77;;
7177;SDS011;3630;42.146;24.756;2023-02-15T03:48:51;29.17;;;20.43;;
7177;SDS011;3630;42.146;24.756;2023-02-15T03:51:23;29.73;;;20.40;;
7177;SDS011;3630;42.146;24.756;2023-02-15T03:54:00;30.90;;;21.35;;
7177;SDS011;3630;42.146;24.756;2023-02-15T03:56:30;31.07;;;20.60;;
7177;SDS011;3630;42.146;24.756;2023-02-15T03:58:57;27.43;;;20.27;;
7177;SDS011;3630;42.146;24.756;2023-02-15T04:01:44;27.17;;;20.10;;
7177;SDS011;3630;42.146;24.756;2023-02-15T04:04:25;30.40;;;20.80;;
7177;SDS011;3630;42.146;24.756;2023-02-15T04:06:58;28.93;;;21.20;;
7177;SDS011;3630;42.146;24.756;2023-02-15T04:09:25;29.67;;;20.33;;
7177;SDS011;3630;42.146;24.756;2023-02-15T04:12:09;28.03;;;19.63;;
7177;SDS011;3630;42.146;24.756;2023-02-15T04:14:36;27.87;;;19.70;;
7177;SDS011;3630;42.146;24.756;2023-02-15T04:17:20;29.83;;;20.23;;
7177;SDS011;3630;42.146;24.756;2023-02-15T04:19:46;35.20;;;20.60;;
7177;SDS011;3630;42.146;24.756;2023-02-15T04:22:32;27.33;;;19.13;;
7177;SDS011;3630;42.146;24.756;2023-02-15T04:25:17;26.27;;;19.23;;
7177;SDS011;3630;42.146;24.756;2023-02-15T04:27:44;26.27;;;19.47;;
7177;SDS011;3630;42.146;24.756;2023-02-15T04:30:13;26.13;;;18.77;;
7177;SDS011;3630;42.146;24.756;2023-02-15T04:32:41;27.33;;;19.60;;
7177;SDS011;3630;42.146;24.756;2023-02-15T04:35:08;30.90;;;20.57;;
7177;SDS011;3630;42.146;24.756;2023-02-15T04:37:37;31.37;;;21.17;;
7177;SDS011;3630;42.146;24.756;2023-02-15T04:40:06;26.13;;;19.27;;
7177;SDS011;3630;42.146;24.756;2023-02-15T04:42:33;26.70;;;19.10;;
7177;SDS011;3630;42.146;24.756;2023-02-15T04:45:00;30.43;;;20.83;;
7177;SDS011;3630;42.146;24.756;2023-02-15T04:47:27;27.60;;;19.83;;
7177;SDS011;3630;42.146;24.756;2023-02-15T04:49:54;27.13;;;19.97;;
7177;SDS011;3630;42.146;24.756;2023-02-15T04:52:21;28.77;;;19.60;;
7177;SDS011;3630;42.146;24.756;2023-02-15T04:54:49;28.70;;;18.93;;
7177;SDS011;3630;42.146;24.756;2023-02-15T04:57:16;26.10;;;19.43;;
7177;SDS011;3630;42.146;24.756;2023-02-15T04:59:43;25.57;;;19.20;;
7177;SDS011;3630;42.146;24.756;2023-02-15T05:02:10;30.30;;;19.57;;
7177;SDS011;3630;42.146;24.756;2023-02-15T05:04:37;26.00;;;19.70;;
7177;SDS011;3630;42.146;24.756;2023-02-15T05:07:03;26.20;;;18.70;;
7177;SDS011;3630;42.146;24.756;2023-02-15T05:09:30;27.30;;;19.33;;
7177;SDS011;3630;42.146;24.756;2023-02-15T05:11:58;29.53;;;20.23;;
7177;SDS011;3630;42.146;24.756;2023-02-15T05:14:25;26.37;;;17.80;;
7177;SDS011;3630;42.146;24.756;2023-02-15T05:16:52;29.93;;;19.07;;
7177;SDS011;3630;42.146;24.756;2023-02-15T05:19:19;28.63;;;19.90;;
7177;SDS011;3630;42.146;24.756;2023-02-15T05:21:45;28.23;;;19.53;;
7177;SDS011;3630;42.146;24.756;2023-02-15T05:24:12;30.00;;;20.33;;
7177;SDS011;3630;42.146;24.756;2023-02-15T05:26:57;26.47;;;19.20;;
7177;SDS011;3630;42.146;24.756;2023-02-15T05:29:42;27.77;;;19.47;;
7177;SDS011;3630;42.146;24.756;2023-02-15T05:32:10;30.90;;;21.07;;
7177;SDS011;3630;42.146;24.756;2023-02-15T05:34:39;29.03;;;21.13;;
7177;SDS011;3630;42.146;24.756;2023-02-15T05:37:06;26.67;;;19.97;;
7177;SDS011;3630;42.146;24.756;2023-02-15T05:39:33;30.73;;;20.07;;
7177;SDS011;3630;42.146;24.756;2023-02-15T05:42:01;28.60;;;20.43;;
7177;SDS011;3630;42.146;24.756;2023-02-15T05:44:29;28.70;;;20.33;;
7177;SDS011;3630;42.146;24.756;2023-02-15T05:46:55;25.50;;;19.17;;
7177;SDS011;3630;42.146;24.756;2023-02-15T05:49:22;25.73;;;19.93;;
7177;SDS011;3630;42.146;24.756;2023-02-15T05:51:49;29.33;;;20.57;;
7177;SDS011;3630;42.146;24.756;2023-02-15T05:54:16;29.60;;;19.83;;
7177;SDS011;3630;42.146;24.756;2023-02-15T05:56:42;28.20;;;19.83;;
7177;SDS011;3630;42.146;24.756;2023-02-15T05:59:11;32.05;;;22.25;;
7177;SDS011;3630;42.146;24.756;2023-02-15T06:01:38;27.90;;;20.47;;
7177;SDS011;3630;42.146;24.756;2023-02-15T06:04:04;28.40;;;20.53;;
7177;SDS011;3630;42.146;24.756;2023-02-15T06:06:31;32.13;;;21.67;;
7177;SDS011;3630;42.146;24.756;2023-02-15T06:08:59;29.50;;;20.17;;
7177;SDS011;3630;42.146;24.756;2023-02-15T06:11:26;31.57;;;21.33;;
7177;SDS011;3630;42.146;24.756;2023-02-15T06:13:53;29.60;;;20.37;;
7177;SDS011;3630;42.146;24.756;2023-02-15T06:16:21;27.47;;;20.40;;
7177;SDS011;3630;42.146;24.756;2023-02-15T06:18:47;29.23;;;20.60;;
7177;SDS011;3630;42.146;24.756;2023-02-15T06:21:14;26.97;;;18.93;;
7177;SDS011;3630;42.146;24.756;2023-02-15T06:23:41;33.80;;;20.37;;
7177;SDS011;3630;42.146;24.756;2023-02-15T06:26:08;26.87;;;18.93;;
7177;SDS011;3630;42.146;24.756;2023-02-15T06:28:35;29.03;;;19.90;;
7177;SDS011;3630;42.146;24.756;2023-02-15T06:31:02;32.70;;;19.93;;
7177;SDS011;3630;42.146;24.756;2023-02-15T06:33:30;29.60;;;20.40;;
7177;SDS011;3630;42.146;24.756;2023-02-15T06:35:58;27.60;;;19.20;;
7177;SDS011;3630;42.146;24.756;2023-02-15T06:38:25;28.70;;;20.97;;
7177;SDS011;3630;42.146;24.756;2023-02-15T06:40:52;27.83;;;19.90;;
7177;SDS011;3630;42.146;24.756;2023-02-15T06:43:19;26.70;;;19.83;;
7177;SDS011;3630;42.146;24.756;2023-02-15T06:45:46;27.70;;;18.90;;
7177;SDS011;3630;42.146;24.756;2023-02-15T06:48:13;25.53;;;19.03;;
7177;SDS011;3630;42.146;24.756;2023-02-15T06:50:41;27.33;;;19.33;;
7177;SDS011;3630;42.146;24.756;2023-02-15T06:53:08;25.60;;;19.77;;
7177;SDS011;3630;42.146;24.756;2023-02-15T06:55:35;28.87;;;20.03;;
7177;SDS011;3630;42.146;24.756;2023-02-15T06:58:02;25.87;;;19.27;;
7177;SDS011;3630;42.146;24.756;2023-02-15T07:00:29;28.03;;;20.57;;
7177;SDS011;3630;42.146;24.756;2023-02-15T07:02:56;26.87;;;19.77;;
7177;SDS011;3630;42.146;24.756;2023-02-15T07:05:24;24.00;;;18.47;;
7177;SDS011;3630;42.146;24.756;2023-02-15T07:07:57;27.63;;;18.67;;
7177;SDS011;3630;42.146;24.756;2023-02-15T07:10:23;27.50;;;18.70;;
7177;SDS011;3630;42.146;24.756;2023-02-15T07:12:50;25.70;;;17.70;;
7177;SDS011;3630;42.146;24.756;2023-02-15T07:15:16;24.13;;;17.33;;
7177;SDS011;3630;42.146;24.756;2023-02-15T07:17:46;25.23;;;18.50;;
7177;SDS011;3630;42.146;24.756;2023-02-15T07:20:14;22.70;;;16.93;;
7177;SDS011;3630;42.146;24.756;2023-02-15T07:22:42;23.77;;;18.00;;
7177;SDS011;3630;42.146;24.756;2023-02-15T07:25:11;27.55;;;20.88;;
7177;SDS011;3630;42.146;24.756;2023-02-15T07:27:39;24.27;;;17.50;;
7177;SDS011;3630;42.146;24.756;2023-02-15T07:30:08;27.73;;;18.73;;
7177;SDS011;3630;42.146;24.756;2023-02-15T07:32:36;25.40;;;18.83;;
7177;SDS011;3630;42.146;24.756;2023-02-15T07:35:23;27.80;;;19.57;;
7177;SDS011;3630;42.146;24.756;2023-02-15T07:37:50;26.27;;;19.10;;
7177;SDS011;3630;42.146;24.756;2023-02-15T07:40:19;35.17;;;19.40;;
7177;SDS011;3630;42.146;24.756;2023-02-15T07:42:48;27.67;;;18.87;;
7177;SDS011;3630;42.146;24.756;2023-02-15T07:45:16;26.57;;;19.53;;
7177;SDS011;3630;42.146;24.756;2023-02-15T07:47:43;26.93;;;19.33;;
7177;SDS011;3630;42.146;24.756;2023-02-15T07:50:10;28.10;;;21.03;;
7177;SDS011;3630;42.146;24.756;2023-02-15T07:52:37;23.87;;;18.33;;
7177;SDS011;3630;42.146;24.756;2023-02-15T07:55:03;28.10;;;20.13;;
7177;SDS011;3630;42.146;24.756;2023-02-15T07:57:32;25.20;;;18.93;;
7177;SDS011;3630;42.146;24.756;2023-02-15T07:59:59;24.57;;;18.23;;
7177;SDS011;3630;42.146;24.756;2023-02-15T08:02:25;24.13;;;17.70;;
7177;SDS011;3630;42.146;24.756;2023-02-15T08:04:54;26.33;;;18.37;;
7177;SDS011;3630;42.146;24.756;2023-02-15T08:07:20;28.00;;;18.43;;
7177;SDS011;3630;42.146;24.756;2023-02-15T08:09:47;23.13;;;17.90;;
7177;SDS011;3630;42.146;24.756;2023-02-15T08:12:14;24.80;;;18.20;;
7177;SDS011;3630;42.146;24.756;2023-02-15T08:14:42;23.17;;;18.37;;
7177;SDS011;3630;42.146;24.756;2023-02-15T08:17:09;24.97;;;18.67;;
7177;SDS011;3630;42.146;24.756;2023-02-15T08:19:35;24.10;;;17.57;;
7177;SDS011;3630;42.146;24.756;2023-02-15T08:22:03;28.23;;;18.60;;
7177;SDS011;3630;42.146;24.756;2023-02-15T08:24:32;26.50;;;18.73;;
7177;SDS011;3630;42.146;24.756;2023-02-15T08:27:02;26.00;;;19.10;;
7177;SDS011;3630;42.146;24.756;2023-02-15T08:29:30;27.00;;;20.07;;
7177;SDS011;3630;42.146;24.756;2023-02-15T08:31:59;24.87;;;18.30;;
7177;SDS011;3630;42.146;24.756;2023-02-15T08:34:28;26.13;;;19.47;;
7177;SDS011;3630;42.146;24.756;2023-02-15T08:36:55;26.37;;;19.50;;
7177;SDS011;3630;42.146;24.756;2023-02-15T08:39:23;30.37;;;20.97;;
7177;SDS011;3630;42.146;24.756;2023-02-15T08:41:49;25.23;;;19.63;;
7177;SDS011;3630;42.146;24.756;2023-02-15T08:44:17;23.63;;;18.33;;
7177;SDS011;3630;42.146;24.756;2023-02-15T08:46:45;24.53;;;17.20;;
7177;SDS011;3630;42.146;24.756;2023-02-15T08:49:15;23.67;;;18.43;;
7177;SDS011;3630;42.146;24.756;2023-02-15T08:51:43;26.37;;;19.53;;
7177;SDS011;3630;42.146;24.756;2023-02-15T08:54:11;23.47;;;19.30;;
7177;SDS011;3630;42.146;24.756;2023-02-15T08:56:41;27.13;;;19.63;;
7177;SDS011;3630;42.146;24.756;2023-02-15T08:59:11;27.63;;;19.60;;
7177;SDS011;3630;42.146;24.756;2023-02-15T09:01:39;23.97;;;17.47;;
7177;SDS011;3630;42.146;24.756;2023-02-15T09:04:06;27.33;;;19.10;;
7177;SDS011;3630;42.146;24.756;2023-02-15T09:06:36;27.00;;;18.77;;
7177;SDS011;3630;42.146;24.756;2023-02-15T09:09:04;25.83;;;18.97;;
7177;SDS011;3630;42.146;24.756;2023-02-15T09:11:32;23.60;;;18.10;;
7177;SDS011;3630;42.146;24.756;2023-02-15T09:14:00;23.70;;;18.53;;
7177;SDS011;3630;42.146;24.756;2023-02-15T09:16:29;25.80;;;18.87;;
7177;SDS011;3630;42.146;24.756;2023-02-15T09:18:57;27.50;;;19.30;;
7177;SDS011;3630;42.146;24.756;2023-02-15T09:21:26;25.70;;;19.93;;
7177;SDS011;3630;42.146;24.756;2023-02-15T09:23:56;24.23;;;17.73;;
7177;SDS011;3630;42.146;24.756;2023-02-15T09:26:25;23.37;;;18.33;;
7177;SDS011;3630;42.146;24.756;2023-02-15T09:28:54;26.10;;;19.50;;
7177;SDS011;3630;42.146;24.756;2023-02-15T09:31:22;25.20;;;18.77;;
7177;SDS011;3630;42.146;24.756;2023-02-15T09:33:50;23.37;;;17.67;;
7177;SDS011;3630;42.146;24.756;2023-02-15T09:36:18;25.60;;;17.43;;
7177;SDS011;3630;42.146;24.756;2023-02-15T09:38:48;26.37;;;17.83;;
7177;SDS011;3630;42.146;24.756;2023-02-15T09:44:13;21.57;;;15.57;;
7177;SDS011;3630;42.146;24.756;2023-02-15T09:46:52;22.00;;;16.73;;
7177;SDS011;3630;42.146;24.756;2023-02-15T09:49:34;23.80;;;18.20;;
7177;SDS011;3630;42.146;24.756;2023-02-15T09:52:18;22.60;;;17.40;;
7177;SDS011;3630;42.146;24.756;2023-02-15T09:55:21;27.07;;;17.87;;
7177;SDS011;3630;42.146;24.756;2023-02-15T09:58:04;22.43;;;17.93;;
7177;SDS011;3630;42.146;24.756;2023-02-15T10:00:39;23.70;;;18.23;;
7177;SDS011;3630;42.146;24.756;2023-02-15T10:06:08;24.23;;;17.90;;
7177;SDS011;3630;42.146;24.756;2023-02-15T10:08:48;24.07;;;17.67;;
7177;SDS011;3630;42.146;24.756;2023-02-15T10:11:29;24.90;;;18.57;;
7177;SDS011;3630;42.146;24.756;2023-02-15T10:14:15;25.20;;;17.83;;
7177;SDS011;3630;42.146;24.756;2023-02-15T10:17:08;23.10;;;16.17;;
7177;SDS011;3630;42.146;24.756;2023-02-15T10:19:51;21.43;;;16.20;;
7177;SDS011;3630;42.146;24.756;2023-02-15T10:22:33;23.20;;;16.70;;
7177;SDS011;3630;42.146;24.756;2023-02-15T10:25:12;21.37;;;15.57;;
7177;SDS011;3630;42.146;24.756;2023-02-15T10:27:46;21.27;;;15.70;;
7177;SDS011;3630;42.146;24.756;2023-02-15T10:30:16;19.57;;;15.73;;
7177;SDS011;3630;42.146;24.756;2023-02-15T10:32:55;23.30;;;17.13;;
7177;SDS011;3630;42.146;24.756;2023-02-15T10:35:27;24.23;;;17.77;;
7177;SDS011;3630;42.146;24.756;2023-02-15T10:38:05;21.83;;;17.30;;
7177;SDS011;3630;42.146;24.756;2023-02-15T10:40:51;23.13;;;15.73;;
7177;SDS011;3630;42.146;24.756;2023-02-15T10:43:32;21.60;;;16.13;;
7177;SDS011;3630;42.146;24.756;2023-02-15T10:46:14;24.30;;;16.07;;
7177;SDS011;3630;42.146;24.756;2023-02-15T10:49:02;24.70;;;15.97;;
7177;SDS011;3630;42.146;24.756;2023-02-15T10:51:40;21.30;;;16.87;;
7177;SDS011;3630;42.146;24.756;2023-02-15T10:54:19;20.73;;;15.83;;
7177;SDS011;3630;42.146;24.756;2023-02-15T10:56:59;21.07;;;15.67;;
7177;SDS011;3630;42.146;24.756;2023-02-15T10:59:37;20.93;;;15.37;;
7177;SDS011;3630;42.146;24.756;2023-02-15T11:02:23;25.40;;;16.13;;
7177;SDS011;3630;42.146;24.756;2023-02-15T11:07:46;21.27;;;16.10;;
7177;SDS011;3630;42.146;24.756;2023-02-15T11:10:22;19.93;;;15.07;;
7177;SDS011;3630;42.146;24.756;2023-02-15T11:12:54;18.70;;;14.50;;
7177;SDS011;3630;42.146;24.756;2023-02-15T11:15:24;19.40;;;14.87;;
7177;SDS011;3630;42.146;24.756;2023-02-15T11:17:59;20.97;;;15.20;;
7177;SDS011;3630;42.146;24.756;2023-02-15T11:20:30;18.30;;;14.67;;
7177;SDS011;3630;42.146;24.756;2023-02-15T11:23:02;18.63;;;15.10;;
7177;SDS011;3630;42.146;24.756;2023-02-15T11:25:29;19.13;;;13.93;;
7177;SDS011;3630;42.146;24.756;2023-02-15T11:27:58;17.47;;;13.93;;
7177;SDS011;3630;42.146;24.756;2023-02-15T11:30:33;20.43;;;14.30;;
7177;SDS011;3630;42.146;24.756;2023-02-15T11:33:13;18.40;;;14.03;;
7177;SDS011;3630;42.146;24.756;2023-02-15T11:35:46;19.57;;;14.87;;
7177;SDS011;3630;42.146;24.756;2023-02-15T11:38:17;17.30;;;14.33;;
7177;SDS011;3630;42.146;24.756;2023-02-15T11:40:47;20.23;;;16.00;;
7177;SDS011;3630;42.146;24.756;2023-02-15T11:43:16;19.00;;;14.47;;
7177;SDS011;3630;42.146;24.756;2023-02-15T11:45:48;21.37;;;15.60;;
7177;SDS011;3630;42.146;24.756;2023-02-15T11:48:16;18.87;;;14.43;;
7177;SDS011;3630;42.146;24.756;2023-02-15T11:50:43;16.97;;;13.77;;
7177;SDS011;3630;42.146;24.756;2023-02-15T11:53:12;18.53;;;14.57;;
7177;SDS011;3630;42.146;24.756;2023-02-15T11:55:40;18.33;;;14.67;;
7177;SDS011;3630;42.146;24.756;2023-02-15T11:58:22;18.43;;;14.20;;
7177;SDS011;3630;42.146;24.756;2023-02-15T12:00:55;19.77;;;14.93;;
7177;SDS011;3630;42.146;24.756;2023-02-15T12:03:29;16.97;;;13.97;;
7177;SDS011;3630;42.146;24.756;2023-02-15T12:06:11;17.50;;;14.10;;
7177;SDS011;3630;42.146;24.756;2023-02-15T12:08:43;17.87;;;14.30;;
7177;SDS011;3630;42.146;24.756;2023-02-15T12:11:17;19.43;;;14.37;;
7177;SDS011;3630;42.146;24.756;2023-02-15T12:13:56;18.77;;;14.83;;
7177;SDS011;3630;42.146;24.756;2023-02-15T12:16:24;16.77;;;13.80;;
7177;SDS011;3630;42.146;24.756;2023-02-15T12:18:54;20.83;;;14.97;;
7177;SDS011;3630;42.146;24.756;2023-02-15T12:21:25;16.73;;;12.77;;
7177;SDS011;3630;42.146;24.756;2023-02-15T12:23:54;14.87;;;12.73;;
7177;SDS011;3630;42.146;24.756;2023-02-15T12:26:24;19.30;;;15.07;;
7177;SDS011;3630;42.146;24.756;2023-02-15T12:28:53;20.50;;;14.23;;
7177;SDS011;3630;42.146;24.756;2023-02-15T12:31:24;18.70;;;14.17;;
7177;SDS011;3630;42.146;24.756;2023-02-15T12:33:56;19.67;;;15.67;;
7177;SDS011;3630;42.146;24.756;2023-02-15T12:36:29;17.03;;;13.50;;
7177;SDS011;3630;42.146;24.756;2023-02-15T12:39:05;17.93;;;13.90;;
7177;SDS011;3630;42.146;24.756;2023-02-15T12:41:56;14.40;;;12.43;;
7177;SDS011;3630;42.146;24.756;2023-02-15T12:44:26;15.70;;;12.73;;
7177;SDS011;3630;42.146;24.756;2023-02-15T12:46:58;16.60;;;12.90;;
7177;SDS011;3630;42.146;24.756;2023-02-15T12:49:28;17.57;;;13.70;;
7177;SDS011;3630;42.146;24.756;2023-02-15T12:51:56;15.50;;;12.47;;
7177;SDS011;3630;42.146;24.756;2023-02-15T12:54:35;15.00;;;12.73;;
7177;SDS011;3630;42.146;24.756;2023-02-15T12:57:17;14.77;;;12.73;;
7177;SDS011;3630;42.146;24.756;2023-02-15T12:59:50;17.30;;;13.97;;
7177;SDS011;3630;42.146;24.756;2023-02-15T13:02:20;18.07;;;14.70;;
7177;SDS011;3630;42.146;24.756;2023-02-15T13:04:52;16.33;;;12.67;;
7177;SDS011;3630;42.146;24.756;2023-02-15T13:07:20;15.60;;;12.53;;
7177;SDS011;3630;42.146;24.756;2023-02-15T13:09:47;18.27;;;13.37;;
7177;SDS011;3630;42.146;24.756;2023-02-15T13:12:18;15.27;;;12.80;;
7177;SDS011;3630;42.146;24.756;2023-02-15T13:14:49;17.73;;;14.07;;
7177;SDS011;3630;42.146;24.756;2023-02-15T13:17:20;16.33;;;13.20;;
7177;SDS011;3630;42.146;24.756;2023-02-15T13:19:56;14.60;;;12.23;;
7177;SDS011;3630;42.146;24.756;2023-02-15T13:22:28;16.37;;;12.53;;
7177;SDS011;3630;42.146;24.756;2023-02-15T13:25:01;13.50;;;11.27;;
7177;SDS011;3630;42.146;24.756;2023-02-15T13:27:37;15.70;;;12.77;;
7177;SDS011;3630;42.146;24.756;2023-02-15T13:30:13;15.83;;;13.43;;
7177;SDS011;3630;42.146;24.756;2023-02-15T13:32:50;13.87;;;11.77;;
7177;SDS011;3630;42.146;24.756;2023-02-15T13:35:22;14.00;;;11.43;;
7177;SDS011;3630;42.146;24.756;2023-02-15T13:37:59;17.43;;;13.23;;
7177;SDS011;3630;42.146;24.756;2023-02-15T13:40:33;14.40;;;11.87;;
7177;SDS011;3630;42.146;24.756;2023-02-15T13:43:12;15.23;;;12.40;;
7177;SDS011;3630;42.146;24.756;2023-02-15T13:45:52;18.00;;;13.63;;
7177;SDS011;3630;42.146;24.756;2023-02-15T13:48:32;15.60;;;13.23;;
7177;SDS011;3630;42.146;24.756;2023-02-15T13:51:09;20.60;;;14.13;;
7177;SDS011;3630;42.146;24.756;2023-02-15T13:56:54;16.33;;;14.02;;
7177;SDS011;3630;42.146;24.756;2023-02-15T13:59:45;15.43;;;12.00;;
7177;SDS011;3630;42.146;24.756;2023-02-15T14:02:34;16.10;;;13.03;;
7177;SDS011;3630;42.146;24.756;2023-02-15T14:05:29;17.67;;;13.40;;
7177;SDS011;3630;42.146;24.756;2023-02-15T14:08:11;15.70;;;12.53;;
7177;SDS011;3630;42.146;24.756;2023-02-15T14:10:46;16.80;;;13.73;;
7177;SDS011;3630;42.146;24.756;2023-02-15T14:19:37;18.47;;;14.60;;
7177;SDS011;3630;42.146;24.756;2023-02-15T14:22:13;19.10;;;14.17;;
7177;SDS011;3630;42.146;24.756;2023-02-15T14:24:51;17.47;;;14.23;;
7177;SDS011;3630;42.146;24.756;2023-02-15T14:27:37;18.07;;;13.97;;
7177;SDS011;3630;42.146;24.756;2023-02-15T14:30:15;16.53;;;13.37;;
7177;SDS011;3630;42.146;24.756;2023-02-15T14:32:47;19.20;;;15.30;;
7177;SDS011;3630;42.146;24.756;2023-02-15T14:35:17;20.77;;;14.50;;
7177;SDS011;3630;42.146;24.756;2023-02-15T14:37:50;17.13;;;14.77;;
7177;SDS011;3630;42.146;24.756;2023-02-15T14:40:26;22.10;;;15.37;;
7177;SDS011;3630;42.146;24.756;2023-02-15T14:43:19;18.83;;;14.80;;
7177;SDS011;3630;42.146;24.756;2023-02-15T14:45:58;17.07;;;14.07;;
7177;SDS011;3630;42.146;24.756;2023-02-15T14:48:36;20.80;;;14.77;;
7177;SDS011;3630;42.146;24.756;2023-02-15T14:51:09;17.07;;;14.00;;
7177;SDS011;3630;42.146;24.756;2023-02-15T14:53:37;17.80;;;14.03;;
7177;SDS011;3630;42.146;24.756;2023-02-15T15:01:42;17.00;;;13.97;;
7177;SDS011;3630;42.146;24.756;2023-02-15T15:04:23;18.97;;;14.40;;
7177;SDS011;3630;42.146;24.756;2023-02-15T15:07:04;20.80;;;15.53;;
7177;SDS011;3630;42.146;24.756;2023-02-15T15:09:40;22.10;;;16.17;;
7177;SDS011;3630;42.146;24.756;2023-02-15T15:12:36;20.47;;;15.80;;
7177;SDS011;3630;42.146;24.756;2023-02-15T15:15:05;18.50;;;13.67;;
7177;SDS011;3630;42.146;24.756;2023-02-15T15:20:38;18.20;;;13.73;;
7177;SDS011;3630;42.146;24.756;2023-02-15T15:26:20;16.23;;;13.50;;
7177;SDS011;3630;42.146;24.756;2023-02-15T15:29:02;19.60;;;14.73;;
7177;SDS011;3630;42.146;24.756;2023-02-15T15:31:41;18.27;;;14.70;;
7177;SDS011;3630;42.146;24.756;2023-02-15T15:34:28;24.47;;;16.67;;
7177;SDS011;3630;42.146;24.756;2023-02-15T15:40:31;16.80;;;13.67;;
7177;SDS011;3630;42.146;24.756;2023-02-15T15:49:28;27.20;;;16.53;;
7177;SDS011;3630;42.146;24.756;2023-02-15T15:51:59;30.83;;;21.30;;